Time;durP1;ratioP1;P1;durP2;ratioP2;P2;SDS_P1;SDS_P2;PMS_P1;PMS_P2;Temp;Humidity;BMP_temperature;BMP_pressure;BME280_temperature;BME280_humidity;BME280_pressure;Samples;Min_cycle;Max_cycle;Signal;HPM_P1;HPM_P2
2023/03/22 00:03:34;;;;;;;28.17;24.08;;;;;;;;;;10173265;28;20048;-64
2023/03/22 00:08:27;;;;;;;27.00;24.05;;;;;;;;;;10191982;28;20058;-64
2023/03/22 00:13:21;;;;;;;26.02;23.33;;;;;;;;;;10191235;28;20056;-64
2023/03/22 00:18:15;;;;;;;26.30;23.20;;;;;;;;;;10190739;28;20056;-64
2023/03/22 00:23:08;;;;;;;30.02;20.90;;;;;;;;;;10190519;28;20412;-64
2023/03/22 00:28:02;;;;;;;27.75;21.33;;;;;;;;;;10190931;28;20389;-64
2023/03/22 00:32:55;;;;;;;26.13;23.33;;;;;;;;;;10189900;28;20056;-64
2023/03/22 00:37:50;;;;;;;24.48;21.88;;;;;;;;;;10177701;28;20475;-64
2023/03/22 00:42:43;;;;;;;24.20;21.25;;;;;;;;;;10190047;28;20028;-64
2023/03/22 00:47:37;;;;;;;24.20;21.33;;;;;;;;;;10110151;28;20132;-64
2023/03/22 00:52:30;;;;;;;26.55;23.17;;;;;;;;;;10140149;28;20114;-64
2023/03/22 00:57:22;;;;;;;25.25;21.77;;;;;;;;;;10108420;28;20048;-64
2023/03/22 01:02:16;;;;;;;23.48;19.95;;;;;;;;;;10108917;28;20053;-64
2023/03/22 01:07:10;;;;;;;22.65;19.92;;;;;;;;;;10107596;28;20493;-64
2023/03/22 01:12:03;;;;;;;22.60;20.02;;;;;;;;;;10107116;28;20080;-64
2023/03/22 01:16:56;;;;;;;25.25;20.27;;;;;;;;;;10123886;28;20048;-64
2023/03/22 01:21:50;;;;;;;23.65;20.58;;;;;;;;;;10121066;28;20045;-64
2023/03/22 01:26:43;;;;;;;22.00;18.98;;;;;;;;;;10140670;28;20143;-64
2023/03/22 01:31:36;;;;;;;22.40;19.40;;;;;;;;;;10106522;28;20107;-64
2023/03/22 01:36:29;;;;;;;22.63;19.77;;;;;;;;;;10105923;28;20551;-64
2023/03/22 01:41:23;;;;;;;24.42;21.83;;;;;;;;;;10106029;28;20064;-63
2023/03/22 01:46:17;;;;;;;22.83;19.70;;;;;;;;;;10152756;28;20113;-64
2023/03/22 01:51:21;;;;;;;22.42;20.02;;;;;;;;;;10151343;28;20067;-63
2023/03/22 01:56:45;;;;;;;24.00;20.50;;;;;;;;;;10145325;28;20059;-63
2023/03/22 02:01:45;;;;;;;28.40;21.52;;;;;;;;;;10127931;28;20044;-63
2023/03/22 02:06:39;;;;;;;24.95;22.33;;;;;;;;;;10150896;28;20048;-64
2023/03/22 02:11:41;;;;;;;21.05;18.85;;;;;;;;;;10149744;28;20044;-63
2023/03/22 02:17:14;;;;;;;22.45;18.65;;;;;;;;;;10150492;28;20051;-63
2023/03/22 02:22:27;;;;;;;19.73;17.75;;;;;;;;;;10158557;28;20079;-63
2023/03/22 02:27:39;;;;;;;19.75;17.65;;;;;;;;;;10162022;28;20033;-63
2023/03/22 02:33:05;;;;;;;22.00;16.48;;;;;;;;;;10142289;28;20056;-63
2023/03/22 02:38:15;;;;;;;19.33;16.77;;;;;;;;;;10155637;28;20174;-63
2023/03/22 02:43:37;;;;;;;20.92;17.50;;;;;;;;;;10172503;28;20070;-63
2023/03/22 02:48:37;;;;;;;19.33;17.23;;;;;;;;;;10163993;28;20078;-64
2023/03/22 02:53:58;;;;;;;22.85;17.98;;;;;;;;;;10185388;28;20051;-63
2023/03/22 02:59:07;;;;;;;17.65;15.95;;;;;;;;;;10185227;28;20059;-63
2023/03/22 03:04:05;;;;;;;18.70;16.77;;;;;;;;;;10172946;28;20101;-63
2023/03/22 03:09:03;;;;;;;21.73;17.10;;;;;;;;;;10181847;28;20408;-63
2023/03/22 03:13:56;;;;;;;22.67;16.98;;;;;;;;;;10184985;28;20126;-63
2023/03/22 03:19:19;;;;;;;20.92;16.30;;;;;;;;;;10176406;28;20474;-63
2023/03/22 03:24:23;;;;;;;22.42;17.65;;;;;;;;;;10193211;28;20066;-63
2023/03/22 03:29:36;;;;;;;17.75;15.85;;;;;;;;;;10166736;28;20048;-63
2023/03/22 03:34:41;;;;;;;20.27;15.95;;;;;;;;;;10185156;28;20108;-63
2023/03/22 03:39:39;;;;;;;18.33;15.05;;;;;;;;;;10161637;28;20047;-63
2023/03/22 03:44:34;;;;;;;17.05;15.27;;;;;;;;;;10176911;28;20052;-63
2023/03/22 03:49:29;;;;;;;19.80;16.38;;;;;;;;;;10160346;28;20056;-63
2023/03/22 03:54:22;;;;;;;18.15;16.02;;;;;;;;;;10192176;28;20067;-63
2023/03/22 03:59:22;;;;;;;20.65;15.90;;;;;;;;;;10176263;28;20079;-63
2023/03/22 04:04:25;;;;;;;19.65;16.48;;;;;;;;;;10174655;28;20043;-63
2023/03/22 04:09:30;;;;;;;19.05;15.63;;;;;;;;;;10170454;28;20048;-63
2023/03/22 04:14:31;;;;;;;20.10;16.40;;;;;;;;;;10175231;28;20056;-63
2023/03/22 04:19:33;;;;;;;18.67;16.67;;;;;;;;;;10173687;28;20131;-63
2023/03/22 04:24:26;;;;;;;18.05;16.10;;;;;;;;;;10176341;28;20055;-63
2023/03/22 04:29:21;;;;;;;17.42;15.63;;;;;;;;;;10186106;28;20040;-63
2023/03/22 04:34:20;;;;;;;19.15;16.92;;;;;;;;;;10173972;28;20155;-63
2023/03/22 04:39:17;;;;;;;19.48;17.48;;;;;;;;;;10171591;28;20123;-63
2023/03/22 04:44:21;;;;;;;19.77;16.45;;;;;;;;;;10170268;28;20044;-63
2023/03/22 04:49:15;;;;;;;20.90;17.35;;;;;;;;;;10181435;28;20082;-63
2023/03/22 04:54:08;;;;;;;20.58;17.05;;;;;;;;;;10189784;28;20504;-63
2023/03/22 04:59:05;;;;;;;22.70;18.08;;;;;;;;;;10171614;28;20124;-63
2023/03/22 05:04:00;;;;;;;19.80;17.75;;;;;;;;;;10189834;28;20055;-63
2023/03/22 05:08:55;;;;;;;22.80;20.30;;;;;;;;;;10171125;28;20040;-63
2023/03/22 05:13:47;;;;;;;28.80;20.52;;;;;;;;;;10188106;28;20055;-63
2023/03/22 05:18:44;;;;;;;24.75;20.13;;;;;;;;;;10176979;28;20052;-63
2023/03/22 05:23:38;;;;;;;22.95;20.23;;;;;;;;;;10169877;28;20048;-63
2023/03/22 05:28:30;;;;;;;24.67;21.17;;;;;;;;;;10178296;28;20048;-63
2023/03/22 05:33:33;;;;;;;26.65;22.50;;;;;;;;;;10178639;28;20420;-63
2023/03/22 05:38:28;;;;;;;25.13;21.70;;;;;;;;;;10169496;28;20555;-63
2023/03/22 05:43:24;;;;;;;29.77;21.15;;;;;;;;;;10170312;28;20056;-63
2023/03/22 05:48:18;;;;;;;24.95;20.17;;;;;;;;;;10181434;28;20040;-62
2023/03/22 05:53:12;;;;;;;24.48;20.65;;;;;;;;;;10168787;28;20405;-62
2023/03/22 05:58:32;;;;;;;29.90;23.10;;;;;;;;;;10171211;28;20139;-62
2023/03/22 06:03:27;;;;;;;28.23;22.48;;;;;;;;;;10162596;28;20398;-63
2023/03/22 06:08:27;;;;;;;25.48;22.45;;;;;;;;;;10165647;28;20615;-64
2023/03/22 06:13:23;;;;;;;33.85;23.98;;;;;;;;;;10161187;28;20105;-63
2023/03/22 06:18:17;;;;;;;28.73;21.98;;;;;;;;;;10160451;28;20047;-64
2023/03/22 06:23:18;;;;;;;23.65;20.50;;;;;;;;;;10161510;28;20079;-64
2023/03/22 06:28:13;;;;;;;26.20;19.77;;;;;;;;;;10155217;28;20052;-64
2023/03/22 06:33:14;;;;;;;21.67;17.45;;;;;;;;;;10157783;28;20041;-64
2023/03/22 06:38:12;;;;;;;27.08;18.92;;;;;;;;;;10153569;28;20094;-64
2023/03/22 06:43:05;;;;;;;22.23;17.63;;;;;;;;;;10161463;28;20060;-64
2023/03/22 06:48:04;;;;;;;21.77;19.10;;;;;;;;;;10152242;28;20089;-64
2023/03/22 06:53:14;;;;;;;29.73;20.95;;;;;;;;;;10169091;28;20052;-64
2023/03/22 06:58:07;;;;;;;26.92;21.73;;;;;;;;;;10166737;28;20052;-64
2023/03/22 07:03:00;;;;;;;34.33;24.08;;;;;;;;;;10177800;28;20076;-63
2023/03/22 07:08:06;;;;;;;27.90;23.85;;;;;;;;;;10173923;28;20051;-63
2023/03/22 07:13:07;;;;;;;25.92;20.30;;;;;;;;;;10175004;28;20595;-63
2023/03/22 07:18:02;;;;;;;25.17;20.33;;;;;;;;;;10163152;28;20105;-63
2023/03/22 07:22:58;;;;;;;20.67;18.58;;;;;;;;;;10175291;28;20052;-64
2023/03/22 07:27:55;;;;;;;21.50;18.63;;;;;;;;;;10172657;28;20569;-64
2023/03/22 07:32:49;;;;;;;27.10;19.33;;;;;;;;;;10166527;28;20054;-64
2023/03/22 07:37:43;;;;;;;20.88;17.33;;;;;;;;;;10184754;28;20123;-64
2023/03/22 07:42:48;;;;;;;27.35;17.20;;;;;;;;;;10169922;28;20139;-64
2023/03/22 07:48:10;;;;;;;26.00;20.20;;;;;;;;;;10174215;28;20048;-64
2023/03/22 07:53:35;;;;;;;28.55;20.65;;;;;;;;;;10055972;28;20064;-64
2023/03/22 07:58:29;;;;;;;28.52;19.05;;;;;;;;;;10177555;28;20075;-65
2023/03/22 08:03:24;;;;;;;26.35;18.65;;;;;;;;;;10185358;28;20109;-64
2023/03/22 08:08:27;;;;;;;30.77;18.45;;;;;;;;;;10172793;28;20056;-64
2023/03/22 08:13:20;;;;;;;24.27;20.05;;;;;;;;;;10166498;28;20114;-64
2023/03/22 08:18:14;;;;;;;33.45;21.05;;;;;;;;;;10182907;28;20075;-65
2023/03/22 08:23:13;;;;;;;24.23;20.58;;;;;;;;;;10181290;28;20081;-64
2023/03/22 08:28:32;;;;;;;23.15;20.15;;;;;;;;;;10170092;28;20519;-64
2023/03/22 08:33:26;;;;;;;23.55;19.23;;;;;;;;;;10172324;28;20467;-65
2023/03/22 08:38:20;;;;;;;23.17;20.58;;;;;;;;;;10189505;28;20044;-65
2023/03/22 08:43:17;;;;;;;26.27;19.85;;;;;;;;;;10172265;28;20055;-65
2023/03/22 08:48:11;;;;;;;26.85;19.48;;;;;;;;;;10175164;28;20048;-65
2023/03/22 08:53:22;;;;;;;27.92;18.58;;;;;;;;;;10173889;28;20413;-65
2023/03/22 08:58:27;;;;;;;20.83;17.00;;;;;;;;;;10175163;28;20097;-65
2023/03/22 09:03:40;;;;;;;21.98;16.63;;;;;;;;;;10175747;28;20093;-65
2023/03/22 09:08:34;;;;;;;18.60;13.45;;;;;;;;;;10189501;28;20128;-65
2023/03/22 09:13:48;;;;;;;16.15;14.45;;;;;;;;;;10167172;28;20514;-65
2023/03/22 09:18:42;;;;;;;14.55;13.18;;;;;;;;;;10173592;28;20052;-66
2023/03/22 09:23:41;;;;;;;16.55;11.68;;;;;;;;;;10176443;28;20044;-65
2023/03/22 09:28:35;;;;;;;13.43;12.23;;;;;;;;;;10171529;28;20130;-65
2023/03/22 09:33:31;;;;;;;13.80;12.48;;;;;;;;;;10176394;28;20048;-66
2023/03/22 09:38:26;;;;;;;15.32;13.73;;;;;;;;;;10172727;28;20044;-66
2023/03/22 09:43:21;;;;;;;12.68;11.57;;;;;;;;;;10176198;28;20487;-66
2023/03/22 09:48:45;;;;;;;14.02;12.63;;;;;;;;;;10169951;28;20097;-65
2023/03/22 09:53:40;;;;;;;16.70;12.45;;;;;;;;;;10114668;28;20055;-65
2023/03/22 09:58:42;;;;;;;14.40;13.15;;;;;;;;;;10187314;28;20063;-65
2023/03/22 10:04:13;;;;;;;15.23;13.93;;;;;;;;;;10184194;28;20059;-66
2023/03/22 10:09:23;;;;;;;16.67;13.82;;;;;;;;;;10040977;28;20045;-63
2023/03/22 10:14:22;;;;;;;14.75;12.35;;;;;;;;;;10157072;28;20075;-64
2023/03/22 10:19:36;;;;;;;13.82;11.18;;;;;;;;;;10186484;28;20043;-64
2023/03/22 10:24:31;;;;;;;14.48;12.85;;;;;;;;;;10170108;28;20101;-64
2023/03/22 10:29:58;;;;;;;14.10;12.15;;;;;;;;;;10178091;28;20070;-64
2023/03/22 10:35:11;;;;;;;12.52;11.25;;;;;;;;;;10185624;28;20138;-64
2023/03/22 10:40:06;;;;;;;14.68;12.30;;;;;;;;;;10185970;28;20510;-64
2023/03/22 10:45:18;;;;;;;13.70;11.63;;;;;;;;;;10163120;28;20056;-64
2023/03/22 10:50:34;;;;;;;11.95;10.65;;;;;;;;;;10171715;28;20048;-64
2023/03/22 10:55:28;;;;;;;12.33;11.13;;;;;;;;;;10185023;28;20094;-64
2023/03/22 11:00:22;;;;;;;17.33;11.30;;;;;;;;;;10185257;28;20290;-64
2023/03/22 11:05:27;;;;;;;13.85;10.32;;;;;;;;;;10185759;28;20056;-64
2023/03/22 11:10:26;;;;;;;12.90;11.70;;;;;;;;;;10185301;28;20048;-64
2023/03/22 11:15:23;;;;;;;12.55;11.23;;;;;;;;;;10185299;28;20036;-64
2023/03/22 11:20:18;;;;;;;11.27;9.88;;;;;;;;;;10184433;28;20443;-64
2023/03/22 11:25:16;;;;;;;11.13;10.10;;;;;;;;;;10185216;28;20055;-64
2023/03/22 11:30:20;;;;;;;11.23;10.02;;;;;;;;;;10168367;28;20056;-64
2023/03/22 11:35:25;;;;;;;56.15;12.70;;;;;;;;;;10186409;28;20048;-64
2023/03/22 11:40:21;;;;;;;12.80;11.57;;;;;;;;;;10191651;28;20473;-64
2023/03/22 11:45:41;;;;;;;16.45;11.40;;;;;;;;;;10192324;28;20052;-65
2023/03/22 11:50:37;;;;;;;13.60;12.02;;;;;;;;;;10180989;28;20059;-64
2023/03/22 11:55:34;;;;;;;14.07;12.45;;;;;;;;;;10190265;28;20058;-64
2023/03/22 12:00:28;;;;;;;15.95;11.38;;;;;;;;;;10191972;28;20044;-64
2023/03/22 12:05:26;;;;;;;12.77;10.25;;;;;;;;;;10174438;28;20476;-64
2023/03/22 12:10:37;;;;;;;14.15;12.85;;;;;;;;;;10188241;28;20532;-64
2023/03/22 12:15:38;;;;;;;12.52;11.25;;;;;;;;;;10160161;28;20090;-65
2023/03/22 12:20:44;;;;;;;14.65;11.98;;;;;;;;;;10175314;28;20052;-64
2023/03/22 12:25:37;;;;;;;12.90;11.20;;;;;;;;;;10174331;28;20063;-63
2023/03/22 12:30:44;;;;;;;12.35;11.15;;;;;;;;;;10190724;28;20123;-64
2023/03/22 12:35:42;;;;;;;16.23;11.95;;;;;;;;;;10190230;28;20047;-64
2023/03/22 12:40:40;;;;;;;13.43;12.02;;;;;;;;;;10169700;28;20125;-64
2023/03/22 12:45:39;;;;;;;12.60;11.40;;;;;;;;;;10190517;28;20637;-64
2023/03/22 12:50:43;;;;;;;13.55;12.38;;;;;;;;;;10189508;28;20048;-64
2023/03/22 12:55:37;;;;;;;14.80;12.85;;;;;;;;;;10182461;28;20051;-64
2023/03/22 13:00:39;;;;;;;15.57;13.17;;;;;;;;;;10189311;28;20543;-63
2023/03/22 13:05:36;;;;;;;14.77;13.45;;;;;;;;;;10189184;28;20052;-64
2023/03/22 13:10:29;;;;;;;;;;;;;;;;;;10190173;28;20067;-64
2023/03/22 13:15:34;;;;;;;15.15;13.57;;;;;;;;;;10188942;28;19924;-64
2023/03/22 13:20:34;;;;;;;13.98;12.68;;;;;;;;;;10188574;28;20097;-64
2023/03/22 13:25:35;;;;;;;14.82;13.40;;;;;;;;;;10180760;28;20139;-63
2023/03/22 13:30:53;;;;;;;15.63;12.45;;;;;;;;;;10188314;28;20055;-63
2023/03/22 13:35:49;;;;;;;15.05;10.27;;;;;;;;;;10185639;28;20070;-65
2023/03/22 13:41:00;;;;;;;13.60;12.27;;;;;;;;;;10180810;28;20127;-65
2023/03/22 13:46:10;;;;;;;14.25;12.45;;;;;;;;;;10178632;28;20091;-65
2023/03/22 13:51:16;;;;;;;15.95;12.43;;;;;;;;;;10141034;28;20098;-65
2023/03/22 13:56:12;;;;;;;16.77;13.23;;;;;;;;;;10146215;28;20656;-65
2023/03/22 14:01:34;;;;;;;16.75;15.07;;;;;;;;;;10146297;28;20076;-64
2023/03/22 14:06:49;;;;;;;19.50;17.42;;;;;;;;;;10151911;28;20063;-65
2023/03/22 14:11:56;;;;;;;18.52;15.90;;;;;;;;;;10141831;28;20124;-65
2023/03/22 14:16:51;;;;;;;24.63;19.03;;;;;;;;;;10144603;28;20051;-65
2023/03/22 14:21:49;;;;;;;20.33;18.25;;;;;;;;;;10144173;28;20124;-65
2023/03/22 14:27:12;;;;;;;20.38;18.20;;;;;;;;;;10144898;28;20071;-65
2023/03/22 14:32:05;;;;;;;20.33;17.92;;;;;;;;;;10137162;28;20489;-65
2023/03/22 14:37:00;;;;;;;18.30;16.40;;;;;;;;;;10141898;28;20131;-65
2023/03/22 14:42:03;;;;;;;19.08;17.27;;;;;;;;;;10153340;28;20042;-64
2023/03/22 14:47:12;;;;;;;18.40;16.58;;;;;;;;;;10178001;28;20135;-65
2023/03/22 14:52:34;;;;;;;19.05;14.00;;;;;;;;;;10185587;28;20508;-65
2023/03/22 14:57:34;;;;;;;15.05;13.52;;;;;;;;;;10164621;28;20138;-65
2023/03/22 15:02:41;;;;;;;15.93;12.63;;;;;;;;;;10167785;28;20052;-65
2023/03/22 15:07:47;;;;;;;16.30;13.18;;;;;;;;;;10185024;28;20108;-65
2023/03/22 15:12:40;;;;;;;14.73;13.20;;;;;;;;;;10190193;28;20040;-65
2023/03/22 15:17:36;;;;;;;12.73;10.80;;;;;;;;;;10174780;28;20123;-66
2023/03/22 15:22:32;;;;;;;56.85;12.38;;;;;;;;;;10192224;28;20404;-65
2023/03/22 15:27:24;;;;;;;10.77;9.18;;;;;;;;;;10191927;28;20381;-65
2023/03/22 15:32:19;;;;;;;16.92;9.27;;;;;;;;;;10191611;28;20447;-66
2023/03/22 15:37:16;;;;;;;12.13;9.07;;;;;;;;;;10174434;28;20412;-65
2023/03/22 15:42:27;;;;;;;50.37;13.27;;;;;;;;;;10163740;28;20039;-66
2023/03/22 15:47:19;;;;;;;14.20;12.70;;;;;;;;;;10191422;28;20575;-66
2023/03/22 15:52:11;;;;;;;30.05;13.43;;;;;;;;;;10191211;28;20413;-66
2023/03/22 15:57:38;;;;;;;19.90;12.68;;;;;;;;;;10191669;28;20051;-66
2023/03/22 16:02:32;;;;;;;14.27;12.77;;;;;;;;;;10153883;28;20055;-65
2023/03/22 16:07:25;;;;;;;12.90;9.77;;;;;;;;;;10191360;28;20413;-65
2023/03/22 16:12:17;;;;;;;12.10;10.60;;;;;;;;;;10191331;28;20036;-65
2023/03/22 16:17:18;;;;;;;13.05;9.57;;;;;;;;;;10191014;28;20055;-66
2023/03/22 16:22:11;;;;;;;13.65;9.45;;;;;;;;;;10189740;28;20048;-65
2023/03/22 16:27:10;;;;;;;17.27;10.77;;;;;;;;;;10190177;28;20127;-65
2023/03/22 16:32:03;;;;;;;17.73;9.77;;;;;;;;;;10189454;28;20079;-65
2023/03/22 16:36:56;;;;;;;17.20;9.38;;;;;;;;;;10180939;28;20412;-65
2023/03/22 16:41:49;;;;;;;9.98;8.20;;;;;;;;;;10185904;28;20100;-65
2023/03/22 16:46:42;;;;;;;12.38;7.45;;;;;;;;;;10189588;28;20066;-65
2023/03/22 16:51:35;;;;;;;16.55;8.13;;;;;;;;;;10190556;28;20043;-65
2023/03/22 16:56:29;;;;;;;11.27;8.68;;;;;;;;;;10187477;28;20565;-69
2023/03/22 17:01:22;;;;;;;13.07;8.43;;;;;;;;;;10189667;28;20052;-67
2023/03/22 17:06:16;;;;;;;12.73;8.15;;;;;;;;;;10186637;28;20101;-65
2023/03/22 17:11:17;;;;;;;11.40;7.03;;;;;;;;;;10189218;28;20112;-65
2023/03/22 17:16:09;;;;;;;13.35;7.88;;;;;;;;;;10188423;28;20056;-65
2023/03/22 17:21:00;;;;;;;16.08;8.88;;;;;;;;;;10188949;28;20039;-65
2023/03/22 17:25:52;;;;;;;9.93;7.80;;;;;;;;;;10188389;28;20036;-65
2023/03/22 17:30:45;;;;;;;16.90;8.23;;;;;;;;;;10187924;28;20047;-65
2023/03/22 17:35:40;;;;;;;9.70;8.30;;;;;;;;;;10188021;28;20036;-65
2023/03/22 17:40:33;;;;;;;15.65;9.95;;;;;;;;;;10188287;28;20048;-65
2023/03/22 17:45:45;;;;;;;18.05;11.63;;;;;;;;;;10188513;28;20060;-65
2023/03/22 17:50:37;;;;;;;13.32;9.63;;;;;;;;;;10186006;28;20072;-65
2023/03/22 17:55:31;;;;;;;19.02;10.32;;;;;;;;;;10188005;28;20036;-69
2023/03/22 18:00:23;;;;;;;10.73;9.57;;;;;;;;;;10171413;28;20039;-66
2023/03/22 18:05:18;;;;;;;11.07;9.85;;;;;;;;;;10178742;28;20067;-69
2023/03/22 18:10:12;;;;;;;14.38;10.68;;;;;;;;;;10175038;28;20507;-67
2023/03/22 18:15:08;;;;;;;10.90;9.68;;;;;;;;;;10176370;28;20047;-68
2023/03/22 18:20:00;;;;;;;12.93;11.63;;;;;;;;;;10167791;28;20044;-68
2023/03/22 18:24:53;;;;;;;14.18;11.93;;;;;;;;;;10170943;28;20089;-69
2023/03/22 18:29:45;;;;;;;15.27;13.18;;;;;;;;;;10172194;28;20078;-68
2023/03/22 18:34:36;;;;;;;15.60;11.88;;;;;;;;;;10165040;28;20048;-69
2023/03/22 18:39:29;;;;;;;14.82;12.73;;;;;;;;;;10178363;28;20118;-68
2023/03/22 18:44:21;;;;;;;13.15;11.45;;;;;;;;;;10184619;28;20113;-68
2023/03/22 18:49:13;;;;;;;17.90;13.68;;;;;;;;;;10185635;28;20036;-68
2023/03/22 18:54:06;;;;;;;40.50;36.40;;;;;;;;;;10185573;28;20036;-68
2023/03/22 18:59:18;;;;;;;16.30;14.60;;;;;;;;;;10184915;28;20044;-68
2023/03/22 19:04:12;;;;;;;23.88;17.92;;;;;;;;;;10178728;28;20043;-68
2023/03/22 19:09:05;;;;;;;18.13;15.43;;;;;;;;;;10184517;28;20044;-68
2023/03/22 19:13:58;;;;;;;18.42;14.38;;;;;;;;;;10185420;28;20500;-68
2023/03/22 19:18:51;;;;;;;14.93;13.40;;;;;;;;;;10184815;28;20249;-68
2023/03/22 19:23:43;;;;;;;23.73;16.10;;;;;;;;;;10184904;28;20109;-68
2023/03/22 19:28:36;;;;;;;23.33;17.23;;;;;;;;;;10182747;28;20055;-69
2023/03/22 19:33:29;;;;;;;24.45;18.23;;;;;;;;;;10177073;28;20055;-68
2023/03/22 19:38:21;;;;;;;24.00;19.77;;;;;;;;;;10172692;28;20080;-68
2023/03/22 19:43:15;;;;;;;21.27;15.88;;;;;;;;;;10175698;28;20036;-67
2023/03/22 19:48:06;;;;;;;17.17;12.07;;;;;;;;;;10173551;28;20048;-67
2023/03/22 19:53:00;;;;;;;17.85;12.65;;;;;;;;;;10166313;28;20036;-67
2023/03/22 19:57:51;;;;;;;19.92;13.10;;;;;;;;;;10171421;28;20618;-67
2023/03/22 20:02:44;;;;;;;18.48;10.82;;;;;;;;;;10180188;28;20044;-68
2023/03/22 20:07:37;;;;;;;17.52;11.75;;;;;;;;;;10179873;28;20069;-69
2023/03/22 20:12:29;;;;;;;17.77;14.15;;;;;;;;;;10179377;28;20040;-66
2023/03/22 20:17:21;;;;;;;16.10;13.43;;;;;;;;;;10169779;28;20455;-66
2023/03/22 20:22:14;;;;;;;21.40;14.75;;;;;;;;;;10169763;28;20040;-68
2023/03/22 20:27:07;;;;;;;16.15;12.95;;;;;;;;;;10175358;28;20032;-68
2023/03/22 20:32:00;;;;;;;18.17;14.05;;;;;;;;;;10167161;28;20044;-67
2023/03/22 20:36:52;;;;;;;20.60;13.43;;;;;;;;;;10168300;28;20519;-67
2023/03/22 20:41:44;;;;;;;16.17;12.80;;;;;;;;;;10166277;28;20135;-67
2023/03/22 20:46:36;;;;;;;22.90;15.77;;;;;;;;;;10098736;28;20471;-66
2023/03/22 20:51:31;;;;;;;21.83;16.38;;;;;;;;;;10098609;28;20273;-67
2023/03/22 20:56:23;;;;;;;20.63;17.27;;;;;;;;;;10100105;28;20044;-67
2023/03/22 21:01:17;;;;;;;20.45;15.95;;;;;;;;;;10098782;28;20068;-67
2023/03/22 21:06:12;;;;;;;20.65;17.38;;;;;;;;;;10100196;28;20128;-67
2023/03/22 21:11:07;;;;;;;21.02;17.17;;;;;;;;;;10098947;28;20048;-67
2023/03/22 21:15:59;;;;;;;18.05;14.85;;;;;;;;;;10101202;28;20493;-67
2023/03/22 21:20:54;;;;;;;19.80;14.13;;;;;;;;;;10101447;28;20052;-67
2023/03/22 21:25:52;;;;;;;19.23;14.32;;;;;;;;;;10100667;28;20059;-67
2023/03/22 21:30:44;;;;;;;18.27;14.68;;;;;;;;;;10100254;28;20048;-66
2023/03/22 21:35:42;;;;;;;15.90;14.05;;;;;;;;;;10091663;28;20460;-66
2023/03/22 21:40:36;;;;;;;17.17;12.57;;;;;;;;;;10096577;28;20076;-66
2023/03/22 21:45:33;;;;;;;16.17;13.57;;;;;;;;;;10125877;28;20063;-66
2023/03/22 21:50:24;;;;;;;16.52;12.93;;;;;;;;;;10169508;28;20102;-66
2023/03/22 21:55:19;;;;;;;20.02;15.23;;;;;;;;;;10177873;28;20040;-65
2023/03/22 22:00:18;;;;;;;24.35;15.80;;;;;;;;;;10177712;28;20734;-66
2023/03/22 22:05:12;;;;;;;18.50;16.60;;;;;;;;;;10175838;28;20412;-66
2023/03/22 22:10:09;;;;;;;18.67;16.73;;;;;;;;;;10167754;28;20069;-66
2023/03/22 22:15:00;;;;;;;18.10;16.15;;;;;;;;;;10171609;28;20059;-66
2023/03/22 22:19:57;;;;;;;18.50;15.57;;;;;;;;;;10177475;28;20047;-66
2023/03/22 22:24:50;;;;;;;16.27;14.60;;;;;;;;;;10181879;28;20549;-66
2023/03/22 22:29:42;;;;;;;18.30;16.33;;;;;;;;;;10176821;28;20083;-65
2023/03/22 22:34:34;;;;;;;21.67;15.23;;;;;;;;;;10178927;28;20047;-66
2023/03/22 22:39:28;;;;;;;16.42;14.60;;;;;;;;;;10172824;28;20058;-65
2023/03/22 22:44:20;;;;;;;16.77;14.30;;;;;;;;;;10168225;28;20053;-66
2023/03/22 22:49:13;;;;;;;17.83;15.57;;;;;;;;;;10166355;28;20405;-66
2023/03/22 22:54:06;;;;;;;15.48;13.95;;;;;;;;;;10174960;28;20444;-66
2023/03/22 22:58:58;;;;;;;16.85;14.65;;;;;;;;;;10172737;28;20134;-65
2023/03/22 23:03:49;;;;;;;14.02;12.32;;;;;;;;;;10177479;28;20406;-65
2023/03/22 23:08:48;;;;;;;14.95;13.35;;;;;;;;;;10166973;28;20047;-66
2023/03/22 23:13:45;;;;;;;12.73;11.38;;;;;;;;;;10172598;28;20079;-65
2023/03/22 23:18:38;;;;;;;11.65;10.45;;;;;;;;;;10184994;28;20086;-65
2023/03/22 23:23:30;;;;;;;13.13;10.43;;;;;;;;;;10184656;28;20131;-65
2023/03/22 23:28:32;;;;;;;11.05;9.10;;;;;;;;;;10184874;28;20044;-65
2023/03/22 23:33:24;;;;;;;13.57;10.15;;;;;;;;;;10191047;28;21347;-65
2023/03/22 23:38:16;;;;;;;10.80;9.38;;;;;;;;;;10192809;28;20089;-65
2023/03/22 23:43:08;;;;;;;11.18;9.82;;;;;;;;;;10193056;28;20040;-65
2023/03/22 23:48:01;;;;;;;10.52;9.63;;;;;;;;;;10192765;28;20052;-65
2023/03/22 23:52:53;;;;;;;11.80;10.02;;;;;;;;;;10192913;28;20131;-65
2023/03/22 23:57:46;;;;;;;11.02;9.95;;;;;;;;;;10192635;28;20051;-65
